createdAt,value
2022-10-21T00:04:47.132Z,11.36
2022-10-21T00:09:38.907Z,11.33
2022-10-21T00:14:30.628Z,11.29
2022-10-21T00:19:22.601Z,11.25
2022-10-21T00:24:14.233Z,11.21
2022-10-21T00:29:05.864Z,11.21
2022-10-21T00:33:57.533Z,11.18
2022-10-21T00:38:49.456Z,11.17
2022-10-21T00:44:01.687Z,11.14
2022-10-21T00:48:57.781Z,11.13
2022-10-21T00:53:50.523Z,11.09
2022-10-21T00:58:42.260Z,11.05
2022-10-21T01:03:35.210Z,11.01
2022-10-21T01:08:28.638Z,11.00
2022-10-21T01:13:38.913Z,10.96
2022-10-21T01:18:31.015Z,10.93
2022-10-21T01:23:31.908Z,10.89
2022-10-21T01:28:38.511Z,10.87
2022-10-21T01:33:54.616Z,10.85
2022-10-21T01:39:11.165Z,10.83
2022-10-21T01:44:12.700Z,10.81
2022-10-21T01:49:27.198Z,10.79
2022-10-21T01:54:30.898Z,10.78
2022-10-21T01:59:27.853Z,10.78
2022-10-21T02:04:20.631Z,10.81
2022-10-21T02:09:12.787Z,10.79
2022-10-21T02:14:29.247Z,10.74
2022-10-21T02:19:21.839Z,10.70
2022-10-21T02:24:13.658Z,10.65
2022-10-21T02:29:05.430Z,10.59
2022-10-21T02:34:07.894Z,10.51
2022-10-21T02:39:07.448Z,10.41
2022-10-21T02:44:01.906Z,10.35
2022-10-21T02:48:54.233Z,10.28
2022-10-21T02:53:45.835Z,10.24
2022-10-21T02:58:37.525Z,10.19
2022-10-21T03:03:29.982Z,10.13
2022-10-21T03:08:21.701Z,10.16
2022-10-21T03:13:13.365Z,10.17
2022-10-21T03:18:05.081Z,10.15
2022-10-21T03:22:56.714Z,10.16
2022-10-21T03:27:50.589Z,10.17
2022-10-21T03:32:42.324Z,10.15
2022-10-21T03:37:33.942Z,10.11
2022-10-21T03:42:25.645Z,10.10
2022-10-21T03:47:17.299Z,10.10
2022-10-21T03:52:08.935Z,10.09
2022-10-21T03:57:00.704Z,10.09
2022-10-21T04:01:52.698Z,10.09
2022-10-21T04:06:44.457Z,10.10
2022-10-21T04:11:36.136Z,10.10
2022-10-21T04:16:27.971Z,10.13
2022-10-21T04:21:19.889Z,10.14
2022-10-21T04:26:12.185Z,10.16
2022-10-21T04:31:03.959Z,10.17
2022-10-21T04:35:56.079Z,10.17
2022-10-21T04:40:47.709Z,10.15
2022-10-21T04:45:40.104Z,10.11
2022-10-21T04:50:32.608Z,10.09
2022-10-21T04:55:24.321Z,10.04
2022-10-21T05:00:15.963Z,10.02
2022-10-21T05:05:08.124Z,9.99
2022-10-21T05:09:59.762Z,9.94
2022-10-21T05:14:51.477Z,9.96
2022-10-21T05:19:43.081Z,9.96
2022-10-21T05:24:34.787Z,9.96
2022-10-21T05:29:26.454Z,9.96
2022-10-21T05:34:18.195Z,9.94
2022-10-21T05:39:11.534Z,9.93
2022-10-21T05:44:03.527Z,9.91
2022-10-21T05:48:55.139Z,9.91
2022-10-21T05:53:46.901Z,9.89
2022-10-21T05:58:38.563Z,9.91
2022-10-21T06:03:33.070Z,9.92
2022-10-21T06:08:25.088Z,9.94
2022-10-21T06:13:16.646Z,9.92
2022-10-21T06:18:08.284Z,9.91
2022-10-21T06:23:00.835Z,9.92
2022-10-21T06:27:53.308Z,9.94
2022-10-21T06:32:45.121Z,9.95
2022-10-21T06:37:37.022Z,9.96
2022-10-21T06:42:28.837Z,9.98
2022-10-21T06:47:20.406Z,9.98
2022-10-21T06:52:12.300Z,10.00
2022-10-21T06:57:04.478Z,10.04
2022-10-21T07:02:00.221Z,10.09
2022-10-21T07:06:52.836Z,10.14
2022-10-21T07:11:44.769Z,10.16
2022-10-21T07:16:37.091Z,10.22
2022-10-21T07:21:30.771Z,10.26
2022-10-21T07:26:23.824Z,10.29
2022-10-21T07:31:19.802Z,10.35
2022-10-21T07:36:15.907Z,10.44
2022-10-21T07:41:08.135Z,10.49
2022-10-21T07:46:03.179Z,10.52
2022-10-21T07:51:04.575Z,10.54
2022-10-21T07:56:08.606Z,10.57
2022-10-21T08:01:01.997Z,10.62
2022-10-21T08:05:54.719Z,10.65
2022-10-21T08:10:46.373Z,10.71
2022-10-21T08:15:42.648Z,10.78
2022-10-21T08:20:34.347Z,10.87
2022-10-21T08:25:29.987Z,10.98
2022-10-21T08:30:21.929Z,11.11
2022-10-21T08:35:13.509Z,11.21
2022-10-21T08:40:05.797Z,11.34
2022-10-21T08:45:07.046Z,11.49
2022-10-21T08:50:04.350Z,11.60
2022-10-21T08:55:03.801Z,11.70
2022-10-21T08:59:55.821Z,11.77
2022-10-21T09:05:17.110Z,11.88
2022-10-21T09:10:22.647Z,12.02
2022-10-21T09:15:40.347Z,12.16
2022-10-21T09:21:03.357Z,12.31
2022-10-21T09:26:01.180Z,12.43
2022-10-21T09:30:54.276Z,12.51
2022-10-21T09:35:59.256Z,12.64
2022-10-21T09:40:53.044Z,12.75
2022-10-21T09:45:46.318Z,12.82
2022-10-21T09:50:38.006Z,12.89
2022-10-21T09:55:31.759Z,12.95
2022-10-21T10:00:42.951Z,13.09
2022-10-21T10:05:35.901Z,13.16
2022-10-21T10:10:33.635Z,13.22
2022-10-21T10:15:39.063Z,13.27
2022-10-21T10:20:30.687Z,13.30
2022-10-21T10:25:24.371Z,13.36
2022-10-21T10:30:17.141Z,13.43
2022-10-21T10:35:21.726Z,13.51
2022-10-21T10:40:26.125Z,13.57
2022-10-21T10:45:22.789Z,13.59
2022-10-21T10:50:51.707Z,13.72
2022-10-21T10:55:44.292Z,13.81
2022-10-21T11:00:43.145Z,13.88
2022-10-21T11:05:38.596Z,13.97
2022-10-21T11:10:35.496Z,14.04
2022-10-21T11:15:50.116Z,14.12
2022-10-21T11:21:12.065Z,14.24
2022-10-21T11:26:12.353Z,14.36
2022-10-21T11:31:20.752Z,14.40
2022-10-21T11:36:17.754Z,14.44
2022-10-21T11:41:28.395Z,14.55
2022-10-21T11:46:38.520Z,14.62
2022-10-21T11:52:03.572Z,14.63
2022-10-21T11:57:14.698Z,14.58
2022-10-21T12:02:25.602Z,14.55
2022-10-21T12:07:40.834Z,14.57
2022-10-21T12:12:38.003Z,14.65
2022-10-21T12:17:34.635Z,14.68
2022-10-21T12:22:29.354Z,14.68
2022-10-21T12:27:38.678Z,14.68
2022-10-21T12:33:06.768Z,14.73
2022-10-21T12:37:59.841Z,14.73
2022-10-21T12:43:28.847Z,14.78
2022-10-21T12:48:39.991Z,14.77
2022-10-21T12:53:40.223Z,14.77
2022-10-21T12:58:39.949Z,14.79
2022-10-21T13:03:55.115Z,14.91
2022-10-21T13:08:49.887Z,14.97
2022-10-21T13:13:46.291Z,15.00
2022-10-21T13:18:56.666Z,15.09
2022-10-21T13:23:52.084Z,15.18
2022-10-21T13:29:07.570Z,15.37
2022-10-21T13:34:01.013Z,15.49
2022-10-21T13:38:55.705Z,15.60
2022-10-21T13:44:00.081Z,15.74
2022-10-21T13:48:51.937Z,15.77
2022-10-21T13:53:46.252Z,15.69
2022-10-21T13:58:40.368Z,15.64
2022-10-21T14:03:32.229Z,15.51
2022-10-21T14:08:28.765Z,15.37
2022-10-21T14:13:25.413Z,15.22
2022-10-21T14:18:33.524Z,15.06
2022-10-21T14:23:29.727Z,14.93
2022-10-21T14:28:22.498Z,14.86
2022-10-21T14:33:28.581Z,14.83
2022-10-21T14:38:29.674Z,14.78
2022-10-21T14:43:31.147Z,14.77
2022-10-21T14:48:33.493Z,14.76
2022-10-21T14:53:26.211Z,14.73
2022-10-21T14:58:23.739Z,14.71
2022-10-21T15:03:15.559Z,14.72
2022-10-21T15:08:19.240Z,14.69
2022-10-21T15:13:19.440Z,14.64
2022-10-21T15:18:43.915Z,14.63
2022-10-21T15:23:37.729Z,14.62
2022-10-21T15:28:33.261Z,14.59
2022-10-21T15:33:25.471Z,14.55
2022-10-21T15:38:17.157Z,14.50
2022-10-21T15:43:10.724Z,14.47
2022-10-21T15:48:02.338Z,14.41
2022-10-21T15:57:50.889Z,14.31
2022-10-21T16:02:42.489Z,14.25
2022-10-21T16:07:34.347Z,14.20
2022-10-21T16:12:26.035Z,14.12
2022-10-21T16:17:18.028Z,14.09
2022-10-21T16:22:22.582Z,14.06
2022-10-21T16:27:26.435Z,14.01
2022-10-21T16:32:23.240Z,13.96
2022-10-21T16:37:27.439Z,13.93
2022-10-21T16:42:20.415Z,13.87
2022-10-21T16:47:18.188Z,13.83
2022-10-21T16:52:13.154Z,13.78
2022-10-21T16:57:06.966Z,13.73
2022-10-21T17:02:00.030Z,13.69
2022-10-21T17:06:51.882Z,13.65
2022-10-21T17:11:43.822Z,13.60
2022-10-21T17:16:35.504Z,13.56
2022-10-21T17:21:32.249Z,13.55
2022-10-21T17:26:24.247Z,13.52
2022-10-21T17:31:21.560Z,13.51
2022-10-21T17:36:13.897Z,13.51
2022-10-21T17:41:05.716Z,13.46
2022-10-21T17:45:57.584Z,13.48
2022-10-21T17:50:57.298Z,13.47
2022-10-21T17:56:00.552Z,13.46
2022-10-21T18:00:52.521Z,13.45
2022-10-21T18:05:46.461Z,13.46
2022-10-21T18:10:38.102Z,13.48
2022-10-21T18:15:31.479Z,13.48
2022-10-21T18:20:24.212Z,13.46
2022-10-21T18:25:15.935Z,13.45
2022-10-21T18:30:08.390Z,13.48
2022-10-21T18:35:00.102Z,13.47
2022-10-21T18:39:55.342Z,13.49
2022-10-21T18:44:51.393Z,13.52
2022-10-21T18:49:43.024Z,13.53
2022-10-21T18:54:35.028Z,13.55
2022-10-21T18:59:26.654Z,13.57
2022-10-21T19:04:18.361Z,13.58
2022-10-21T19:09:22.018Z,13.58
2022-10-21T19:14:15.241Z,13.57
2022-10-21T19:19:07.522Z,13.57
2022-10-21T19:24:01.517Z,13.57
2022-10-21T19:29:00.169Z,13.58
2022-10-21T19:33:51.988Z,13.60
2022-10-21T19:38:44.630Z,13.61
2022-10-21T19:43:37.152Z,13.59
2022-10-21T19:48:29.102Z,13.61
2022-10-21T19:53:20.769Z,13.59
2022-10-21T19:58:12.385Z,13.61
2022-10-21T20:03:04.423Z,13.61
2022-10-21T20:07:56.124Z,13.63
2022-10-21T20:12:47.797Z,13.65
2022-10-21T20:17:39.494Z,13.65
2022-10-21T20:22:31.088Z,13.65
2022-10-21T20:27:22.748Z,13.65
2022-10-21T20:32:14.335Z,13.66
2022-10-21T20:37:06.321Z,13.69
2022-10-21T20:41:57.936Z,13.68
2022-10-21T20:46:49.643Z,13.67
2022-10-21T20:51:42.531Z,13.68
2022-10-21T20:56:37.266Z,13.68
2022-10-21T21:01:32.414Z,13.69
2022-10-21T21:06:25.632Z,13.67
2022-10-21T21:11:17.701Z,13.69
2022-10-21T21:16:14.992Z,13.69
2022-10-21T21:21:13.077Z,13.71
2022-10-21T21:26:11.080Z,13.70
2022-10-21T21:31:04.137Z,13.70
2022-10-21T21:35:59.171Z,13.69
2022-10-21T21:40:50.844Z,13.71
2022-10-21T21:45:48.693Z,13.69
2022-10-21T21:50:41.096Z,13.72
2022-10-21T21:55:32.983Z,13.71
2022-10-21T22:00:25.029Z,13.70
2022-10-21T22:05:16.789Z,13.70
2022-10-21T22:10:08.982Z,13.70
2022-10-21T22:15:00.726Z,13.67
2022-10-21T22:19:53.998Z,13.62
2022-10-21T22:24:46.240Z,13.57
2022-10-21T22:29:37.929Z,13.51
2022-10-21T22:34:29.648Z,13.48
2022-10-21T22:39:21.450Z,13.42
2022-10-21T22:44:13.261Z,13.35
2022-10-21T22:49:05.375Z,13.31
2022-10-21T22:53:57.363Z,13.26
2022-10-21T22:58:48.975Z,13.19
2022-10-21T23:03:40.767Z,13.13
2022-10-21T23:08:32.610Z,13.07
2022-10-21T23:13:24.836Z,13.03
2022-10-21T23:18:17.615Z,13.00
2022-10-21T23:23:10.343Z,13.01
2022-10-21T23:28:02.037Z,13.00
2022-10-21T23:32:54.132Z,13.00
2022-10-21T23:37:45.964Z,13.02
2022-10-21T23:42:41.969Z,13.01
2022-10-21T23:47:35.719Z,13.01
2022-10-21T23:52:27.315Z,13.01
2022-10-21T23:57:19.082Z,13.00
